首页
METAR-TAF:

METAR-TAF

机场 :

布達佩斯李斯特·費倫茨國際機場

布达佩斯, 匈牙利

纬度: 47-26N, 经度: 019-16E, 海拔: 151米

当前天气观测

该预报发布于44分钟前的10:30 UTC
风速14节,风向西转西北,在西转西南北转西北之间变化
温度 21°C
湿度 26%
气压 1020 hPa
能见度10公里或以上
1500米以下无云,无积雨云

METAR: LHBP 211030Z 29014KT 250V330 CAVOK 21/01 Q1020 NOSIG

时间: 13:14 (11:14 UTC)

预报

该预报发布于5小时和59分钟前的05:15 UTC
预报有效从21日的 06点(UTC)到 22日的 06点(UTC)
风速3节,风向多变
能见度10公里或以上
1500米以下无云,无积雨云
成为
从 21日的 07点(UTC)到 21日的 10点(UTC)
风速10节,风向西转西北
成为
从 21日的 16点(UTC)到 21日的 19点(UTC)
风速3节,风向多变

TAF: LHBP 210515Z 2106/2206 VRB03KT CAVOK BECMG 2107/2110 30010KT BECMG 2116/2119 VRB03KT

超过4000个机场的气象观测和天气预报(METAR&TAF报告)。

可查询的气象台以黄色和红色小点在地图上表示。

将鼠标移到小点上方,可查看气象台名称。

然后点击查看天气观测和预报。

如需切换地图:点击带黑十字的绿色按钮放大地图;点击带横线的绿色按钮缩小地图;或者点击绿色箭头查看邻近地区的地图。


METAR-TAF: